Kyoto Maru — JD3149 — position and weather

sailwx.info

Track history (hours):
 
Tides and Currents Weather Stations Pressure Air Temp Water Temp Dewpoint Dewpoint Depression Visibility Wind Speed Wind Dir Waves Ship Positions

Kyoto Maru

Last reported at 2017-Mar-25 07:33 UTC. Time now 2017-Mar-25 07:44 UTC.
Position N 35°27' E 139°42'.

Length 34 m; draft 3.8 m.

Type: Tug. MMSI: 431002219.

Date/timePositionNaut miles runAvg speedWind from/ knotsBaromVisibWave heightAir tempDewpointWater temp
2017-Mar-25 07:33N 35°27' E 139°42'1 0.9
2017-Mar-25 06:34N 35°28' E 139°41'1 0.9
2017-Mar-25 05:33N 35°27' E 139°42'0 0.0
2017-Mar-25 04:33N 35°27' E 139°42'0 0.0
2017-Mar-25 03:34N 35°27' E 139°42'0 0.0
2017-Mar-25 02:33N 35°27' E 139°42'2 2.0
2017-Mar-25 01:34N 35°28' E 139°44'0 0.1
2017-Mar-25 00:33N 35°28' E 139°44'2 1.9
2017-Mar-24 23:33N 35°26' E 139°45'5 4.5
2017-Mar-24 22:33N 35°27' E 139°40'0 0.0
2017-Mar-24 21:34N 35°27' E 139°40'0 0.0
2017-Mar-24 20:34N 35°27' E 139°40'0 0.0
2017-Mar-24 19:34N 35°27' E 139°40'0 0.0
2017-Mar-24 18:34N 35°27' E 139°40'0 0.0
2017-Mar-24 17:33N 35°27' E 139°40'0 0.0
2017-Mar-24 16:33N 35°27' E 139°40'0 0.0
2017-Mar-24 15:33N 35°27' E 139°40'0 0.0
2017-Mar-24 14:34N 35°27' E 139°40'0 0.0
2017-Mar-24 13:34N 35°27' E 139°40'0 0.0
2017-Mar-24 12:34N 35°27' E 139°40'0 0.0
2017-Mar-24 11:33N 35°27' E 139°40'0 0.0
2017-Mar-24 10:33N 35°27' E 139°40'0 0.0
2017-Mar-24 09:34N 35°27' E 139°40'0 0.0
2017-Mar-24 08:34N 35°27' E 139°40'0 0.0
2017-Mar-24 07:34N 35°27' E 139°40'0 0.0
2017-Mar-24 06:34N 35°27' E 139°40'0 0.0
2017-Mar-24 05:34N 35°27' E 139°40'0 0.0
2017-Mar-24 04:34N 35°27' E 139°40'0 0.0
2017-Mar-24 03:33N 35°27' E 139°40'0 0.0
2017-Mar-24 02:33N 35°27' E 139°40'0 0.0
2017-Mar-24 01:34N 35°27' E 139°40'0 0.0
2017-Mar-24 00:34N 35°27' E 139°40'0 0.0
2017-Mar-23 23:33N 35°27' E 139°40'0 0.4
2017-Mar-23 22:34N 35°27' E 139°39'3 2.8
2017-Mar-23 21:33N 35°26' E 139°42'1 0.6
2017-Mar-23 20:33N 35°26' E 139°42'1 0.7
2017-Mar-23 19:33N 35°26' E 139°41'0 0.5
2017-Mar-23 18:33N 35°26' E 139°42'1 0.7
2017-Mar-23 17:34N 35°27' E 139°41'1 1.1
2017-Mar-23 16:34N 35°27' E 139°42'0 0.0
2017-Mar-23 15:34N 35°27' E 139°42'0 0.0
2017-Mar-23 14:34N 35°27' E 139°42'0 0.0
2017-Mar-23 13:34N 35°27' E 139°42'0 0.0
2017-Mar-23 12:33N 35°27' E 139°42'1 0.8
2017-Mar-23 11:33N 35°27' E 139°41'1 0.5
2017-Mar-23 10:33N 35°27' E 139°42'0 0.0
2017-Mar-23 09:33N 35°27' E 139°42'1 0.8
2017-Mar-23 08:34N 35°28' E 139°42'0 0.0
2017-Mar-23 07:33N 35°28' E 139°42'2 1.8
2017-Mar-23 06:34N 35°27' E 139°40'1 0.8
2017-Mar-23 05:34N 35°27' E 139°40'0 0.0
2017-Mar-23 04:34N 35°27' E 139°40'0 0.0
2017-Mar-23 03:33N 35°27' E 139°40'0 0.0
2017-Mar-23 02:34N 35°27' E 139°40'0 0.0
2017-Mar-23 01:34N 35°27' E 139°40'0 0.0
2017-Mar-23 00:34N 35°27' E 139°40'2 2.5
2017-Mar-22 23:34N 35°28' E 139°43'3 2.5
2017-Mar-22 22:34N 35°27' E 139°40'0 0.0
2017-Mar-22 21:34N 35°27' E 139°40'0 0.0
2017-Mar-22 20:33N 35°27' E 139°40'0 0.0
2017-Mar-22 19:34N 35°27' E 139°40'0 0.0
2017-Mar-22 18:34N 35°27' E 139°40'0 0.0
2017-Mar-22 17:34N 35°27' E 139°40'0 0.0
2017-Mar-22 16:34N 35°27' E 139°40'0 0.0
2017-Mar-22 15:33N 35°27' E 139°40'0 0.0
2017-Mar-22 14:33N 35°27' E 139°40'0 0.0
2017-Mar-22 13:33N 35°27' E 139°40'0 0.0
2017-Mar-22 12:33N 35°27' E 139°40'0 0.0
2017-Mar-22 11:34N 35°27' E 139°40'0 0.0
2017-Mar-22 10:34N 35°27' E 139°40'0 0.0
2017-Mar-22 09:33N 35°27' E 139°40'0 0.0
2017-Mar-22 08:33N 35°27' E 139°40'0 0.0
2017-Mar-22 07:34N 35°27' E 139°40'0 0.0
2017-Mar-22 06:34N 35°27' E 139°40'1 1.0
2017-Mar-22 05:34N 35°28' E 139°40'0 0.0
2017-Mar-22 04:34N 35°28' E 139°40'0 0.0
2017-Mar-22 03:34N 35°28' E 139°40'0 0.0
2017-Mar-22 02:33N 35°28' E 139°40'0 0.0
2017-Mar-22 01:34N 35°28' E 139°40'0 0.0
2017-Mar-22 00:33N 35°28' E 139°40'1 0.9
2017-Mar-21 23:33N 35°27' E 139°41'1 0.8
2017-Mar-21 22:34N 35°26' E 139°42'3 3.2
2017-Mar-21 21:33N 35°28' E 139°38'0 0.0
2017-Mar-21 20:34N 35°28' E 139°38'0 0.0
2017-Mar-21 19:33N 35°28' E 139°38'0 0.0
2017-Mar-21 18:34N 35°28' E 139°38'0 0.0
2017-Mar-21 17:34N 35°28' E 139°38'0 0.0
2017-Mar-21 16:34N 35°28' E 139°38'0 0.0
2017-Mar-21 15:33N 35°28' E 139°38'0 0.0
2017-Mar-21 14:34N 35°28' E 139°38'0 0.0
2017-Mar-21 13:34N 35°28' E 139°38'0 0.0
2017-Mar-21 12:34N 35°28' E 139°38'0 0.0
2017-Mar-21 11:34N 35°28' E 139°38'0 0.0
2017-Mar-21 10:34N 35°28' E 139°38'0 0.0
2017-Mar-21 09:33N 35°28' E 139°38'0 0.0
2017-Mar-21 08:34N 35°28' E 139°38'3 2.9
2017-Mar-21 07:34N 35°28' E 139°42'1 1.4
2017-Mar-21 06:33N 35°27' E 139°43'2 2.2
2017-Mar-21 05:33N 35°28' E 139°41'0 0.0
2017-Mar-21 04:34N 35°28' E 139°41'0 0.0
2017-Mar-21 03:34N 35°28' E 139°41'0 0.0
2017-Mar-21 02:33N 35°28' E 139°41'0 0.0
2017-Mar-21 01:33N 35°28' E 139°41'0 0.5
2017-Mar-21 00:33N 35°28' E 139°40'2 1.7
2017-Mar-20 23:33N 35°28' E 139°42'3 2.7
2017-Mar-20 22:33N 35°27' E 139°39'0 0.2
2017-Mar-20 21:34N 35°27' E 139°40'0 0.0
2017-Mar-20 20:33N 35°27' E 139°40'0 0.0
2017-Mar-20 19:33N 35°27' E 139°40'0 0.0
2017-Mar-20 18:34N 35°27' E 139°40'0 0.0
2017-Mar-20 17:33N 35°27' E 139°40'0 0.0
2017-Mar-20 16:33N 35°27' E 139°40'0 0.0
2017-Mar-20 15:33N 35°27' E 139°40'0 0.0
2017-Mar-20 14:33N 35°27' E 139°40'0 0.0
2017-Mar-20 13:34N 35°27' E 139°40'0 0.0
2017-Mar-20 12:33N 35°27' E 139°40'0 0.0
2017-Mar-20 11:33N 35°27' E 139°40'0 0.0
2017-Mar-20 10:34N 35°27' E 139°40'0 0.0
2017-Mar-20 09:34N 35°27' E 139°40'0 0.0
2017-Mar-20 08:33N 35°27' E 139°40'0 0.0
2017-Mar-20 07:34N 35°27' E 139°40'0 0.1
2017-Mar-20 06:34N 35°27' E 139°40'3 3.1
2017-Mar-20 05:33N 35°24' E 139°41'1 1.3
2017-Mar-20 04:33N 35°23' E 139°41'0 0.0
2017-Mar-20 03:33N 35°23' E 139°41'0 0.1
2017-Mar-20 02:33N 35°23' E 139°41'5 5.3
2017-Mar-20 01:34N 35°28' E 139°41'1 0.9
2017-Mar-20 00:33N 35°28' E 139°42'1 0.6
2017-Mar-19 23:33N 35°27' E 139°42'0 0.0
2017-Mar-19 22:34N 35°27' E 139°42'0 0.4
2017-Mar-19 21:34N 35°28' E 139°42'1 0.9
2017-Mar-19 20:34N 35°27' E 139°43'2 2.4
2017-Mar-19 19:34N 35°27' E 139°40'0 0.0
2017-Mar-19 18:33N 35°27' E 139°40'0 0.0
2017-Mar-19 17:34N 35°27' E 139°40'0 0.0
2017-Mar-19 16:33N 35°27' E 139°40'0 0.0
2017-Mar-19 15:34N 35°27' E 139°40'0 0.0
2017-Mar-19 14:34N 35°27' E 139°40'0 0.0
2017-Mar-19 13:33N 35°27' E 139°40'0 0.0
2017-Mar-19 12:34N 35°27' E 139°40'0 0.0
2017-Mar-19 11:34N 35°27' E 139°40'0 0.0
2017-Mar-19 10:34N 35°27' E 139°40'0 0.0
2017-Mar-19 09:34N 35°27' E 139°40'3 2.8
2017-Mar-19 08:34N 35°25' E 139°42'1 1.1
2017-Mar-19 07:34N 35°24' E 139°41'4 3.5
2017-Mar-19 06:33N 35°28' E 139°40'0 0.0
2017-Mar-19 05:33N 35°28' E 139°40'0 0.0
2017-Mar-19 04:33N 35°28' E 139°40'0 0.0
2017-Mar-19 03:34N 35°28' E 139°40'0 0.0
2017-Mar-19 02:34N 35°28' E 139°40'1 0.7
2017-Mar-19 01:34N 35°28' E 139°41'2 1.9
2017-Mar-19 00:34N 35°27' E 139°43'2 1.7
2017-Mar-18 23:34N 35°27' E 139°41'1 1.1
2017-Mar-18 22:33N 35°27' E 139°40'0 0.0
2017-Mar-18 21:33N 35°27' E 139°40'0 0.0
2017-Mar-18 20:34N 35°27' E 139°40'0 0.0
2017-Mar-18 19:34N 35°27' E 139°40'0 0.0
2017-Mar-18 18:34N 35°27' E 139°40'0 0.0
2017-Mar-18 17:33N 35°27' E 139°40'0 0.0
2017-Mar-18 16:33N 35°27' E 139°40'0 0.0
2017-Mar-18 15:33N 35°27' E 139°40'0 0.0
2017-Mar-18 14:34N 35°27' E 139°40'0 0.0
2017-Mar-18 13:34N 35°27' E 139°40'0 0.0
2017-Mar-18 12:34N 35°27' E 139°40'0 0.0
2017-Mar-18 11:34N 35°27' E 139°40'0 0.0
2017-Mar-18 10:33N 35°27' E 139°40'0 0.0
2017-Mar-18 09:34N 35°27' E 139°40'0 0.0
2017-Mar-18 08:33N 35°27' E 139°40'0 0.0
2017-Mar-18 07:34N 35°27' E 139°40'0 0.0
2017-Mar-18 06:34N 35°27' E 139°40'1 1.0
2017-Mar-18 05:34N 35°28' E 139°40'0 0.0
2017-Mar-18 04:34N 35°28' E 139°40'0 0.0
2017-Mar-18 03:34N 35°28' E 139°40'0 0.0
2017-Mar-18 02:34N 35°28' E 139°40'0 0.0
2017-Mar-18 01:34N 35°28' E 139°40'0 0.0
2017-Mar-18 00:34N 35°28' E 139°40'1 1.4
2017-Mar-17 23:33N 35°26' E 139°41'1 0.6
2017-Mar-17 22:34N 35°26' E 139°42'0 0.0
2017-Mar-17 21:34N 35°26' E 139°42'1 1.1
2017-Mar-17 20:34N 35°27' E 139°40'1 0.8
2017-Mar-17 19:34N 35°27' E 139°40'0 0.0
2017-Mar-17 18:33N 35°27' E 139°40'0 0.0
2017-Mar-17 17:34N 35°27' E 139°40'0 0.0
2017-Mar-17 16:34N 35°27' E 139°40'0 0.0
2017-Mar-17 15:34N 35°27' E 139°40'0 0.0
2017-Mar-17 14:34N 35°27' E 139°40'0 0.0
2017-Mar-17 13:34N 35°27' E 139°40'0 0.0
2017-Mar-17 12:34N 35°27' E 139°40'0 0.0
2017-Mar-17 11:34N 35°27' E 139°40'0 0.0
2017-Mar-17 10:34N 35°27' E 139°40'0 0.0
2017-Mar-17 09:34N 35°27' E 139°40'0 0.0
2017-Mar-17 08:34N 35°27' E 139°40'0 0.0
2017-Mar-17 07:34N 35°27' E 139°40'0 0.0
2017-Mar-17 06:34N 35°27' E 139°40'2 1.6
2017-Mar-17 05:34N 35°28' E 139°41'2 1.6
2017-Mar-17 04:34N 35°27' E 139°40'0 0.0
2017-Mar-17 03:34N 35°27' E 139°40'0 0.0
2017-Mar-17 02:33N 35°27' E 139°40'0 0.0
2017-Mar-17 01:34N 35°27' E 139°40'0 0.0
2017-Mar-17 00:33N 35°27' E 139°40'0 0.0
2017-Mar-16 23:34N 35°27' E 139°40'0 0.0
2017-Mar-16 22:34N 35°27' E 139°40'0 0.0
2017-Mar-16 21:34N 35°27' E 139°40'0 0.0
2017-Mar-16 20:34N 35°27' E 139°40'0 0.0
2017-Mar-16 19:33N 35°27' E 139°40'0 0.0
2017-Mar-16 18:33N 35°27' E 139°40'0 0.0
2017-Mar-16 17:33N 35°27' E 139°40'0 0.0
2017-Mar-16 16:34N 35°27' E 139°40'0 0.0
2017-Mar-16 15:33N 35°27' E 139°40'0 0.0
2017-Mar-16 14:34N 35°27' E 139°40'0 0.0
2017-Mar-16 13:33N 35°27' E 139°40'0 0.0
2017-Mar-16 12:34N 35°27' E 139°40'0 0.0
2017-Mar-16 11:33N 35°27' E 139°40'0 0.0
2017-Mar-16 10:34N 35°27' E 139°40'0 0.0
2017-Mar-16 09:34N 35°27' E 139°40'0 0.0
2017-Mar-16 08:34N 35°27' E 139°40'0 0.0
2017-Mar-16 07:33N 35°27' E 139°40'0 0.0
2017-Mar-16 06:33N 35°27' E 139°40'0 0.0
2017-Mar-16 05:33N 35°27' E 139°40'0 0.0
2017-Mar-16 04:34N 35°27' E 139°40'0 0.0
2017-Mar-16 03:34N 35°27' E 139°40'0 0.0
2017-Mar-16 02:34N 35°27' E 139°40'0 0.0
2017-Mar-16 01:34N 35°27' E 139°40'0 0.0
2017-Mar-16 00:34N 35°27' E 139°40'0 0.0
2017-Mar-15 23:34N 35°27' E 139°40'1 1.5
2017-Mar-15 22:33N 35°28' E 139°41'3 3.4
2017-Mar-15 21:33N 35°26' E 139°44'4 4.0
2017-Mar-15 20:34N 35°27' E 139°39'0 0.0
2017-Mar-15 19:34N 35°27' E 139°39'0 0.0
2017-Mar-15 18:34N 35°27' E 139°39'0 0.0
2017-Mar-15 17:34N 35°27' E 139°39'0 0.0
2017-Mar-15 16:33N 35°27' E 139°39'0 0.0
2017-Mar-15 15:34N 35°27' E 139°39'1 1.4
2017-Mar-15 14:34N 35°27' E 139°41'1 1.4
2017-Mar-15 13:33N 35°27' E 139°39'0 0.0
2017-Mar-15 12:34N 35°27' E 139°39'0 0.0
2017-Mar-15 11:34N 35°27' E 139°39'0 0.0
2017-Mar-15 10:34N 35°27' E 139°39'0 0.4
2017-Mar-15 09:34N 35°27' E 139°40'3 3.3
2017-Mar-15 08:34N 35°24' E 139°41'1 0.9
2017-Mar-15 07:34N 35°24' E 139°42'  
Track history (hours):
 
Tides and Currents Weather Stations Pressure Air Temp Water Temp Dewpoint Dewpoint Depression Visibility Wind Speed Wind Dir Waves Ship Positions

Kyoto Maru

Last reported at 2017-Mar-25 07:33 UTC. Time now 2017-Mar-25 07:44 UTC.
Position N 35°27' E 139°42'.

Length 34 m; draft 3.8 m.

Type: Tug. MMSI: 431002219.

Date/timePositionNaut miles runAvg speedWind from/ knotsBaromVisibWave heightAir tempDewpointWater temp
2017-Mar-25 07:33N 35°27' E 139°42'1 0.9
2017-Mar-25 06:34N 35°28' E 139°41'1 0.9
2017-Mar-25 05:33N 35°27' E 139°42'0 0.0
2017-Mar-25 04:33N 35°27' E 139°42'0 0.0
2017-Mar-25 03:34N 35°27' E 139°42'0 0.0
2017-Mar-25 02:33N 35°27' E 139°42'2 2.0
2017-Mar-25 01:34N 35°28' E 139°44'0 0.1
2017-Mar-25 00:33N 35°28' E 139°44'2 1.9
2017-Mar-24 23:33N 35°26' E 139°45'5 4.5
2017-Mar-24 22:33N 35°27' E 139°40'0 0.0
2017-Mar-24 21:34N 35°27' E 139°40'0 0.0
2017-Mar-24 20:34N 35°27' E 139°40'0 0.0
2017-Mar-24 19:34N 35°27' E 139°40'0 0.0
2017-Mar-24 18:34N 35°27' E 139°40'0 0.0
2017-Mar-24 17:33N 35°27' E 139°40'0 0.0
2017-Mar-24 16:33N 35°27' E 139°40'0 0.0
2017-Mar-24 15:33N 35°27' E 139°40'0 0.0
2017-Mar-24 14:34N 35°27' E 139°40'0 0.0
2017-Mar-24 13:34N 35°27' E 139°40'0 0.0
2017-Mar-24 12:34N 35°27' E 139°40'0 0.0
2017-Mar-24 11:33N 35°27' E 139°40'0 0.0
2017-Mar-24 10:33N 35°27' E 139°40'0 0.0
2017-Mar-24 09:34N 35°27' E 139°40'0 0.0
2017-Mar-24 08:34N 35°27' E 139°40'0 0.0
2017-Mar-24 07:34N 35°27' E 139°40'0 0.0
2017-Mar-24 06:34N 35°27' E 139°40'0 0.0
2017-Mar-24 05:34N 35°27' E 139°40'0 0.0
2017-Mar-24 04:34N 35°27' E 139°40'0 0.0
2017-Mar-24 03:33N 35°27' E 139°40'0 0.0
2017-Mar-24 02:33N 35°27' E 139°40'0 0.0
2017-Mar-24 01:34N 35°27' E 139°40'0 0.0
2017-Mar-24 00:34N 35°27' E 139°40'0 0.0
2017-Mar-23 23:33N 35°27' E 139°40'0 0.4
2017-Mar-23 22:34N 35°27' E 139°39'3 2.8
2017-Mar-23 21:33N 35°26' E 139°42'1 0.6
2017-Mar-23 20:33N 35°26' E 139°42'1 0.7
2017-Mar-23 19:33N 35°26' E 139°41'0 0.5
2017-Mar-23 18:33N 35°26' E 139°42'1 0.7
2017-Mar-23 17:34N 35°27' E 139°41'1 1.1
2017-Mar-23 16:34N 35°27' E 139°42'0 0.0
2017-Mar-23 15:34N 35°27' E 139°42'0 0.0
2017-Mar-23 14:34N 35°27' E 139°42'0 0.0
2017-Mar-23 13:34N 35°27' E 139°42'0 0.0
2017-Mar-23 12:33N 35°27' E 139°42'1 0.8
2017-Mar-23 11:33N 35°27' E 139°41'1 0.5
2017-Mar-23 10:33N 35°27' E 139°42'0 0.0
2017-Mar-23 09:33N 35°27' E 139°42'1 0.8
2017-Mar-23 08:34N 35°28' E 139°42'0 0.0
2017-Mar-23 07:33N 35°28' E 139°42'2 1.8
2017-Mar-23 06:34N 35°27' E 139°40'1 0.8
2017-Mar-23 05:34N 35°27' E 139°40'0 0.0
2017-Mar-23 04:34N 35°27' E 139°40'0 0.0
2017-Mar-23 03:33N 35°27' E 139°40'0 0.0
2017-Mar-23 02:34N 35°27' E 139°40'0 0.0
2017-Mar-23 01:34N 35°27' E 139°40'0 0.0
2017-Mar-23 00:34N 35°27' E 139°40'2 2.5
2017-Mar-22 23:34N 35°28' E 139°43'3 2.5
2017-Mar-22 22:34N 35°27' E 139°40'0 0.0
2017-Mar-22 21:34N 35°27' E 139°40'0 0.0
2017-Mar-22 20:33N 35°27' E 139°40'0 0.0
2017-Mar-22 19:34N 35°27' E 139°40'0 0.0
2017-Mar-22 18:34N 35°27' E 139°40'0 0.0
2017-Mar-22 17:34N 35°27' E 139°40'0 0.0
2017-Mar-22 16:34N 35°27' E 139°40'0 0.0
2017-Mar-22 15:33N 35°27' E 139°40'0 0.0
2017-Mar-22 14:33N 35°27' E 139°40'0 0.0
2017-Mar-22 13:33N 35°27' E 139°40'0 0.0
2017-Mar-22 12:33N 35°27' E 139°40'0 0.0
2017-Mar-22 11:34N 35°27' E 139°40'0 0.0
2017-Mar-22 10:34N 35°27' E 139°40'0 0.0
2017-Mar-22 09:33N 35°27' E 139°40'0 0.0
2017-Mar-22 08:33N 35°27' E 139°40'0 0.0
2017-Mar-22 07:34N 35°27' E 139°40'0 0.0
2017-Mar-22 06:34N 35°27' E 139°40'1 1.0
2017-Mar-22 05:34N 35°28' E 139°40'0 0.0
2017-Mar-22 04:34N 35°28' E 139°40'0 0.0
2017-Mar-22 03:34N 35°28' E 139°40'0 0.0
2017-Mar-22 02:33N 35°28' E 139°40'0 0.0
2017-Mar-22 01:34N 35°28' E 139°40'0 0.0
2017-Mar-22 00:33N 35°28' E 139°40'1 0.9
2017-Mar-21 23:33N 35°27' E 139°41'1 0.8
2017-Mar-21 22:34N 35°26' E 139°42'3 3.2
2017-Mar-21 21:33N 35°28' E 139°38'0 0.0
2017-Mar-21 20:34N 35°28' E 139°38'0 0.0
2017-Mar-21 19:33N 35°28' E 139°38'0 0.0
2017-Mar-21 18:34N 35°28' E 139°38'0 0.0
2017-Mar-21 17:34N 35°28' E 139°38'0 0.0
2017-Mar-21 16:34N 35°28' E 139°38'0 0.0
2017-Mar-21 15:33N 35°28' E 139°38'0 0.0
2017-Mar-21 14:34N 35°28' E 139°38'0 0.0
2017-Mar-21 13:34N 35°28' E 139°38'0 0.0
2017-Mar-21 12:34N 35°28' E 139°38'0 0.0
2017-Mar-21 11:34N 35°28' E 139°38'0 0.0
2017-Mar-21 10:34N 35°28' E 139°38'0 0.0
2017-Mar-21 09:33N 35°28' E 139°38'0 0.0
2017-Mar-21 08:34N 35°28' E 139°38'3 2.9
2017-Mar-21 07:34N 35°28' E 139°42'1 1.4
2017-Mar-21 06:33N 35°27' E 139°43'2 2.2
2017-Mar-21 05:33N 35°28' E 139°41'0 0.0
2017-Mar-21 04:34N 35°28' E 139°41'0 0.0
2017-Mar-21 03:34N 35°28' E 139°41'0 0.0
2017-Mar-21 02:33N 35°28' E 139°41'0 0.0
2017-Mar-21 01:33N 35°28' E 139°41'0 0.5
2017-Mar-21 00:33N 35°28' E 139°40'2 1.7
2017-Mar-20 23:33N 35°28' E 139°42'3 2.7
2017-Mar-20 22:33N 35°27' E 139°39'0 0.2
2017-Mar-20 21:34N 35°27' E 139°40'0 0.0
2017-Mar-20 20:33N 35°27' E 139°40'0 0.0
2017-Mar-20 19:33N 35°27' E 139°40'0 0.0
2017-Mar-20 18:34N 35°27' E 139°40'0 0.0
2017-Mar-20 17:33N 35°27' E 139°40'0 0.0
2017-Mar-20 16:33N 35°27' E 139°40'0 0.0
2017-Mar-20 15:33N 35°27' E 139°40'0 0.0
2017-Mar-20 14:33N 35°27' E 139°40'0 0.0
2017-Mar-20 13:34N 35°27' E 139°40'0 0.0
2017-Mar-20 12:33N 35°27' E 139°40'0 0.0
2017-Mar-20 11:33N 35°27' E 139°40'0 0.0
2017-Mar-20 10:34N 35°27' E 139°40'0 0.0
2017-Mar-20 09:34N 35°27' E 139°40'0 0.0
2017-Mar-20 08:33N 35°27' E 139°40'0 0.0
2017-Mar-20 07:34N 35°27' E 139°40'0 0.1
2017-Mar-20 06:34N 35°27' E 139°40'3 3.1
2017-Mar-20 05:33N 35°24' E 139°41'1 1.3
2017-Mar-20 04:33N 35°23' E 139°41'0 0.0
2017-Mar-20 03:33N 35°23' E 139°41'0 0.1
2017-Mar-20 02:33N 35°23' E 139°41'5 5.3
2017-Mar-20 01:34N 35°28' E 139°41'1 0.9
2017-Mar-20 00:33N 35°28' E 139°42'1 0.6
2017-Mar-19 23:33N 35°27' E 139°42'0 0.0
2017-Mar-19 22:34N 35°27' E 139°42'0 0.4
2017-Mar-19 21:34N 35°28' E 139°42'1 0.9
2017-Mar-19 20:34N 35°27' E 139°43'2 2.4
2017-Mar-19 19:34N 35°27' E 139°40'0 0.0
2017-Mar-19 18:33N 35°27' E 139°40'0 0.0
2017-Mar-19 17:34N 35°27' E 139°40'0 0.0
2017-Mar-19 16:33N 35°27' E 139°40'0 0.0
2017-Mar-19 15:34N 35°27' E 139°40'0 0.0
2017-Mar-19 14:34N 35°27' E 139°40'0 0.0
2017-Mar-19 13:33N 35°27' E 139°40'0 0.0
2017-Mar-19 12:34N 35°27' E 139°40'0 0.0
2017-Mar-19 11:34N 35°27' E 139°40'0 0.0
2017-Mar-19 10:34N 35°27' E 139°40'0 0.0
2017-Mar-19 09:34N 35°27' E 139°40'3 2.8
2017-Mar-19 08:34N 35°25' E 139°42'1 1.1
2017-Mar-19 07:34N 35°24' E 139°41'4 3.5
2017-Mar-19 06:33N 35°28' E 139°40'0 0.0
2017-Mar-19 05:33N 35°28' E 139°40'0 0.0
2017-Mar-19 04:33N 35°28' E 139°40'0 0.0
2017-Mar-19 03:34N 35°28' E 139°40'0 0.0
2017-Mar-19 02:34N 35°28' E 139°40'1 0.7
2017-Mar-19 01:34N 35°28' E 139°41'2 1.9
2017-Mar-19 00:34N 35°27' E 139°43'2 1.7
2017-Mar-18 23:34N 35°27' E 139°41'1 1.1
2017-Mar-18 22:33N 35°27' E 139°40'0 0.0
2017-Mar-18 21:33N 35°27' E 139°40'0 0.0
2017-Mar-18 20:34N 35°27' E 139°40'0 0.0
2017-Mar-18 19:34N 35°27' E 139°40'0 0.0
2017-Mar-18 18:34N 35°27' E 139°40'0 0.0
2017-Mar-18 17:33N 35°27' E 139°40'0 0.0
2017-Mar-18 16:33N 35°27' E 139°40'0 0.0
2017-Mar-18 15:33N 35°27' E 139°40'0 0.0
2017-Mar-18 14:34N 35°27' E 139°40'0 0.0
2017-Mar-18 13:34N 35°27' E 139°40'0 0.0
2017-Mar-18 12:34N 35°27' E 139°40'0 0.0
2017-Mar-18 11:34N 35°27' E 139°40'0 0.0
2017-Mar-18 10:33N 35°27' E 139°40'0 0.0
2017-Mar-18 09:34N 35°27' E 139°40'0 0.0
2017-Mar-18 08:33N 35°27' E 139°40'0 0.0
2017-Mar-18 07:34N 35°27' E 139°40'0 0.0
2017-Mar-18 06:34N 35°27' E 139°40'1 1.0
2017-Mar-18 05:34N 35°28' E 139°40'0 0.0
2017-Mar-18 04:34N 35°28' E 139°40'0 0.0
2017-Mar-18 03:34N 35°28' E 139°40'0 0.0
2017-Mar-18 02:34N 35°28' E 139°40'0 0.0
2017-Mar-18 01:34N 35°28' E 139°40'0 0.0
2017-Mar-18 00:34N 35°28' E 139°40'1 1.4
2017-Mar-17 23:33N 35°26' E 139°41'1 0.6
2017-Mar-17 22:34N 35°26' E 139°42'0 0.0
2017-Mar-17 21:34N 35°26' E 139°42'1 1.1
2017-Mar-17 20:34N 35°27' E 139°40'1 0.8
2017-Mar-17 19:34N 35°27' E 139°40'0 0.0
2017-Mar-17 18:33N 35°27' E 139°40'0 0.0
2017-Mar-17 17:34N 35°27' E 139°40'0 0.0
2017-Mar-17 16:34N 35°27' E 139°40'0 0.0
2017-Mar-17 15:34N 35°27' E 139°40'0 0.0
2017-Mar-17 14:34N 35°27' E 139°40'0 0.0
2017-Mar-17 13:34N 35°27' E 139°40'0 0.0
2017-Mar-17 12:34N 35°27' E 139°40'0 0.0
2017-Mar-17 11:34N 35°27' E 139°40'0 0.0
2017-Mar-17 10:34N 35°27' E 139°40'0 0.0
2017-Mar-17 09:34N 35°27' E 139°40'0 0.0
2017-Mar-17 08:34N 35°27' E 139°40'0 0.0
2017-Mar-17 07:34N 35°27' E 139°40'0 0.0
2017-Mar-17 06:34N 35°27' E 139°40'2 1.6
2017-Mar-17 05:34N 35°28' E 139°41'2 1.6
2017-Mar-17 04:34N 35°27' E 139°40'0 0.0
2017-Mar-17 03:34N 35°27' E 139°40'0 0.0
2017-Mar-17 02:33N 35°27' E 139°40'0 0.0
2017-Mar-17 01:34N 35°27' E 139°40'0 0.0
2017-Mar-17 00:33N 35°27' E 139°40'0 0.0
2017-Mar-16 23:34N 35°27' E 139°40'0 0.0
2017-Mar-16 22:34N 35°27' E 139°40'0 0.0
2017-Mar-16 21:34N 35°27' E 139°40'0 0.0
2017-Mar-16 20:34N 35°27' E 139°40'0 0.0
2017-Mar-16 19:33N 35°27' E 139°40'0 0.0
2017-Mar-16 18:33N 35°27' E 139°40'0 0.0
2017-Mar-16 17:33N 35°27' E 139°40'0 0.0
2017-Mar-16 16:34N 35°27' E 139°40'0 0.0
2017-Mar-16 15:33N 35°27' E 139°40'0 0.0
2017-Mar-16 14:34N 35°27' E 139°40'0 0.0
2017-Mar-16 13:33N 35°27' E 139°40'0 0.0
2017-Mar-16 12:34N 35°27' E 139°40'0 0.0
2017-Mar-16 11:33N 35°27' E 139°40'0 0.0
2017-Mar-16 10:34N 35°27' E 139°40'0 0.0
2017-Mar-16 09:34N 35°27' E 139°40'0 0.0
2017-Mar-16 08:34N 35°27' E 139°40'0 0.0
2017-Mar-16 07:33N 35°27' E 139°40'0 0.0
2017-Mar-16 06:33N 35°27' E 139°40'0 0.0
2017-Mar-16 05:33N 35°27' E 139°40'0 0.0
2017-Mar-16 04:34N 35°27' E 139°40'0 0.0
2017-Mar-16 03:34N 35°27' E 139°40'0 0.0
2017-Mar-16 02:34N 35°27' E 139°40'0 0.0
2017-Mar-16 01:34N 35°27' E 139°40'0 0.0
2017-Mar-16 00:34N 35°27' E 139°40'0 0.0
2017-Mar-15 23:34N 35°27' E 139°40'1 1.5
2017-Mar-15 22:33N 35°28' E 139°41'3 3.4
2017-Mar-15 21:33N 35°26' E 139°44'4 4.0
2017-Mar-15 20:34N 35°27' E 139°39'0 0.0
2017-Mar-15 19:34N 35°27' E 139°39'0 0.0
2017-Mar-15 18:34N 35°27' E 139°39'0 0.0
2017-Mar-15 17:34N 35°27' E 139°39'0 0.0
2017-Mar-15 16:33N 35°27' E 139°39'0 0.0
2017-Mar-15 15:34N 35°27' E 139°39'1 1.4
2017-Mar-15 14:34N 35°27' E 139°41'1 1.4
2017-Mar-15 13:33N 35°27' E 139°39'0 0.0
2017-Mar-15 12:34N 35°27' E 139°39'0 0.0
2017-Mar-15 11:34N 35°27' E 139°39'0 0.0
2017-Mar-15 10:34N 35°27' E 139°39'0 0.4
2017-Mar-15 09:34N 35°27' E 139°40'3 3.3
2017-Mar-15 08:34N 35°24' E 139°41'1 0.9
2017-Mar-15 07:34N 35°24' E 139°42'  

Dump ship's entire track history